sensor_id;sensor_type;location;lat;lon;timestamp;pressure;altitude;pressure_sealevel;temperature;humidity
61573;BME280;47465;43.094;12.434;2023-05-11T00:02:12;98057.09;;;13.67;100.00
61573;BME280;47465;43.094;12.434;2023-05-11T00:04:37;98039.25;;;13.68;100.00
61573;BME280;47465;43.094;12.434;2023-05-11T00:07:03;98005.19;;;13.38;100.00
61573;BME280;47465;43.094;12.434;2023-05-11T00:09:31;98039.03;;;13.55;100.00
61573;BME280;47465;43.094;12.434;2023-05-11T00:11:57;98037.25;;;13.55;100.00
61573;BME280;47465;43.094;12.434;2023-05-11T00:14:23;98023.78;;;13.40;100.00
61573;BME280;47465;43.094;12.434;2023-05-11T00:16:49;98017.88;;;13.33;100.00
61573;BME280;47465;43.094;12.434;2023-05-11T00:19:15;98016.81;;;13.18;100.00
61573;BME280;47465;43.094;12.434;2023-05-11T00:21:41;98028.16;;;13.23;100.00
61573;BME280;47465;43.094;12.434;2023-05-11T00:24:07;98032.53;;;13.24;100.00
61573;BME280;47465;43.094;12.434;2023-05-11T00:26:34;98011.41;;;13.20;100.00
61573;BME280;47465;43.094;12.434;2023-05-11T00:29:00;98029.53;;;13.32;100.00
61573;BME280;47465;43.094;12.434;2023-05-11T00:31:26;98007.63;;;13.06;100.00
61573;BME280;47465;43.094;12.434;2023-05-11T00:33:52;98026.41;;;13.22;100.00
61573;BME280;47465;43.094;12.434;2023-05-11T00:36:19;98021.91;;;13.23;100.00
61573;BME280;47465;43.094;12.434;2023-05-11T00:38:45;98030.66;;;13.26;100.00
61573;BME280;47465;43.094;12.434;2023-05-11T00:41:11;98037.59;;;13.30;100.00
61573;BME280;47465;43.094;12.434;2023-05-11T00:43:38;98030.56;;;13.28;100.00
61573;BME280;47465;43.094;12.434;2023-05-11T00:46:04;98036.00;;;13.26;100.00
61573;BME280;47465;43.094;12.434;2023-05-11T00:48:30;98046.56;;;13.29;100.00
61573;BME280;47465;43.094;12.434;2023-05-11T00:50:58;98025.78;;;13.17;100.00
61573;BME280;47465;43.094;12.434;2023-05-11T00:53:24;98012.00;;;13.07;100.00
61573;BME280;47465;43.094;12.434;2023-05-11T00:55:50;98006.66;;;13.07;100.00
61573;BME280;47465;43.094;12.434;2023-05-11T00:58:17;97999.97;;;12.99;100.00
61573;BME280;47465;43.094;12.434;2023-05-11T01:00:44;98016.47;;;13.07;100.00
61573;BME280;47465;43.094;12.434;2023-05-11T01:03:12;98047.75;;;13.22;100.00
61573;BME280;47465;43.094;12.434;2023-05-11T01:05:42;98053.81;;;13.26;100.00
61573;BME280;47465;43.094;12.434;2023-05-11T01:08:14;98015.75;;;13.03;100.00
61573;BME280;47465;43.094;12.434;2023-05-11T01:10:46;98011.13;;;13.07;100.00
61573;BME280;47465;43.094;12.434;2023-05-11T01:13:17;98013.75;;;13.08;100.00
61573;BME280;47465;43.094;12.434;2023-05-11T01:15:50;98018.91;;;13.11;100.00
61573;BME280;47465;43.094;12.434;2023-05-11T01:18:19;98029.59;;;13.11;100.00
61573;BME280;47465;43.094;12.434;2023-05-11T01:20:52;98049.56;;;13.22;100.00
61573;BME280;47465;43.094;12.434;2023-05-11T01:23:44;98044.53;;;13.15;100.00
61573;BME280;47465;43.094;12.434;2023-05-11T01:26:32;98039.72;;;13.05;100.00
61573;BME280;47465;43.094;12.434;2023-05-11T01:29:06;98047.66;;;13.06;100.00
61573;BME280;47465;43.094;12.434;2023-05-11T01:31:39;98048.50;;;13.07;100.00
61573;BME280;47465;43.094;12.434;2023-05-11T01:34:08;98049.38;;;13.07;100.00
61573;BME280;47465;43.094;12.434;2023-05-11T01:36:41;98045.44;;;12.97;100.00
61573;BME280;47465;43.094;12.434;2023-05-11T01:39:09;98055.78;;;13.03;100.00
61573;BME280;47465;43.094;12.434;2023-05-11T01:41:38;98051.84;;;12.93;100.00
61573;BME280;47465;43.094;12.434;2023-05-11T01:44:06;98049.47;;;12.87;100.00
61573;BME280;47465;43.094;12.434;2023-05-11T01:46:35;98035.63;;;12.79;100.00
61573;BME280;47465;43.094;12.434;2023-05-11T01:49:05;98066.50;;;12.84;100.00
61573;BME280;47465;43.094;12.434;2023-05-11T01:51:32;98063.31;;;12.76;100.00
61573;BME280;47465;43.094;12.434;2023-05-11T01:53:59;98034.34;;;12.49;100.00
61573;BME280;47465;43.094;12.434;2023-05-11T01:56:26;98069.09;;;12.67;100.00
61573;BME280;47465;43.094;12.434;2023-05-11T01:58:54;98053.59;;;12.56;100.00
61573;BME280;47465;43.094;12.434;2023-05-11T02:01:21;98057.69;;;12.63;100.00
61573;BME280;47465;43.094;12.434;2023-05-11T02:03:50;98053.50;;;12.58;100.00
61573;BME280;47465;43.094;12.434;2023-05-11T02:06:19;98028.34;;;12.44;100.00
61573;BME280;47465;43.094;12.434;2023-05-11T02:08:48;98061.22;;;12.64;100.00
61573;BME280;47465;43.094;12.434;2023-05-11T02:11:15;98029.94;;;12.48;100.00
61573;BME280;47465;43.094;12.434;2023-05-11T02:13:44;98049.28;;;12.53;100.00
61573;BME280;47465;43.094;12.434;2023-05-11T02:16:11;98078.81;;;12.68;100.00
61573;BME280;47465;43.094;12.434;2023-05-11T02:18:39;98060.59;;;12.59;100.00
61573;BME280;47465;43.094;12.434;2023-05-11T02:21:08;98054.53;;;12.55;100.00
61573;BME280;47465;43.094;12.434;2023-05-11T02:23:36;98062.69;;;12.52;100.00
61573;BME280;47465;43.094;12.434;2023-05-11T02:26:02;98050.63;;;12.43;100.00
61573;BME280;47465;43.094;12.434;2023-05-11T02:28:29;98047.44;;;12.35;100.00
61573;BME280;47465;43.094;12.434;2023-05-11T02:30:59;98061.16;;;12.46;100.00
61573;BME280;47465;43.094;12.434;2023-05-11T02:33:31;98071.91;;;12.45;100.00
61573;BME280;47465;43.094;12.434;2023-05-11T02:35:58;98075.69;;;12.39;100.00
61573;BME280;47465;43.094;12.434;2023-05-11T02:38:30;98083.84;;;12.36;100.00
61573;BME280;47465;43.094;12.434;2023-05-11T02:41:00;98058.00;;;12.18;100.00
61573;BME280;47465;43.094;12.434;2023-05-11T02:43:31;98046.81;;;12.09;100.00
61573;BME280;47465;43.094;12.434;2023-05-11T02:46:01;98083.38;;;12.26;100.00
61573;BME280;47465;43.094;12.434;2023-05-11T02:48:29;98064.03;;;12.02;100.00
61573;BME280;47465;43.094;12.434;2023-05-11T02:50:57;98069.56;;;11.98;100.00
61573;BME280;47465;43.094;12.434;2023-05-11T02:53:29;98068.63;;;11.99;100.00
61573;BME280;47465;43.094;12.434;2023-05-11T02:55:57;98063.88;;;12.05;100.00
61573;BME280;47465;43.094;12.434;2023-05-11T02:58:23;98077.94;;;12.09;100.00
61573;BME280;47465;43.094;12.434;2023-05-11T03:00:49;98072.03;;;12.02;100.00
61573;BME280;47465;43.094;12.434;2023-05-11T03:03:15;98072.16;;;11.99;100.00
61573;BME280;47465;43.094;12.434;2023-05-11T03:05:41;98077.81;;;11.91;100.00
61573;BME280;47465;43.094;12.434;2023-05-11T03:08:07;98069.66;;;11.74;100.00
61573;BME280;47465;43.094;12.434;2023-05-11T03:10:35;98043.69;;;11.59;100.00
61573;BME280;47465;43.094;12.434;2023-05-11T03:13:01;98071.00;;;11.84;100.00
61573;BME280;47465;43.094;12.434;2023-05-11T03:15:28;98080.38;;;11.72;100.00
61573;BME280;47465;43.094;12.434;2023-05-11T03:17:55;98061.13;;;11.66;100.00
61573;BME280;47465;43.094;12.434;2023-05-11T03:20:22;98059.97;;;11.51;100.00
61573;BME280;47465;43.094;12.434;2023-05-11T03:22:48;98045.66;;;11.33;100.00
61573;BME280;47465;43.094;12.434;2023-05-11T03:25:16;98049.13;;;11.35;100.00
61573;BME280;47465;43.094;12.434;2023-05-11T03:27:45;98066.50;;;11.44;100.00
61573;BME280;47465;43.094;12.434;2023-05-11T03:30:14;98046.50;;;11.34;100.00
61573;BME280;47465;43.094;12.434;2023-05-11T03:32:40;98070.56;;;11.52;100.00
61573;BME280;47465;43.094;12.434;2023-05-11T03:35:07;98064.38;;;11.52;100.00
61573;BME280;47465;43.094;12.434;2023-05-11T03:37:35;98077.50;;;11.57;100.00
61573;BME280;47465;43.094;12.434;2023-05-11T03:40:02;98045.06;;;11.47;100.00
61573;BME280;47465;43.094;12.434;2023-05-11T03:42:29;98077.91;;;11.68;100.00
61573;BME280;47465;43.094;12.434;2023-05-11T03:44:59;98071.03;;;11.62;100.00
61573;BME280;47465;43.094;12.434;2023-05-11T03:47:27;98062.53;;;11.54;100.00
61573;BME280;47465;43.094;12.434;2023-05-11T03:49:54;98056.66;;;11.46;100.00
61573;BME280;47465;43.094;12.434;2023-05-11T03:52:21;98046.31;;;11.38;100.00
61573;BME280;47465;43.094;12.434;2023-05-11T03:54:48;98093.34;;;11.60;100.00
61573;BME280;47465;43.094;12.434;2023-05-11T03:57:14;98057.03;;;11.37;100.00
61573;BME280;47465;43.094;12.434;2023-05-11T03:59:40;98063.63;;;11.28;100.00
61573;BME280;47465;43.094;12.434;2023-05-11T04:02:08;98069.13;;;11.23;100.00
61573;BME280;47465;43.094;12.434;2023-05-11T04:04:33;98051.84;;;11.12;100.00
61573;BME280;47465;43.094;12.434;2023-05-11T04:07:00;98076.31;;;11.21;100.00
61573;BME280;47465;43.094;12.434;2023-05-11T04:09:26;98072.66;;;11.24;100.00
61573;BME280;47465;43.094;12.434;2023-05-11T04:11:52;98079.41;;;11.33;100.00
61573;BME280;47465;43.094;12.434;2023-05-11T04:14:17;98069.13;;;11.23;100.00
61573;BME280;47465;43.094;12.434;2023-05-11T04:16:45;98063.88;;;11.22;100.00
61573;BME280;47465;43.094;12.434;2023-05-11T04:19:12;98096.72;;;11.43;100.00
61573;BME280;47465;43.094;12.434;2023-05-11T04:21:38;98060.22;;;11.24;100.00
61573;BME280;47465;43.094;12.434;2023-05-11T04:24:04;98105.03;;;11.56;100.00
61573;BME280;47465;43.094;12.434;2023-05-11T04:26:30;98055.31;;;11.36;100.00
61573;BME280;47465;43.094;12.434;2023-05-11T04:28:56;98060.44;;;11.40;100.00
61573;BME280;47465;43.094;12.434;2023-05-11T04:31:22;98067.34;;;11.44;100.00
61573;BME280;47465;43.094;12.434;2023-05-11T04:33:48;98095.94;;;11.61;100.00
61573;BME280;47465;43.094;12.434;2023-05-11T04:36:15;98083.56;;;11.60;100.00
61573;BME280;47465;43.094;12.434;2023-05-11T04:38:41;98072.44;;;11.50;100.00
61573;BME280;47465;43.094;12.434;2023-05-11T04:41:08;98078.25;;;11.60;100.00
61573;BME280;47465;43.094;12.434;2023-05-11T04:43:34;98111.75;;;11.86;100.00
61573;BME280;47465;43.094;12.434;2023-05-11T04:46:00;98088.06;;;11.80;100.00
61573;BME280;47465;43.094;12.434;2023-05-11T04:48:26;98078.31;;;11.79;100.00
61573;BME280;47465;43.094;12.434;2023-05-11T04:50:52;98075.53;;;11.82;100.00
61573;BME280;47465;43.094;12.434;2023-05-11T04:53:20;98096.16;;;11.99;100.00
61573;BME280;47465;43.094;12.434;2023-05-11T04:55:46;98083.69;;;12.00;100.00
61573;BME280;47465;43.094;12.434;2023-05-11T04:58:12;98072.22;;;11.98;100.00
61573;BME280;47465;43.094;12.434;2023-05-11T05:00:38;98090.16;;;12.15;100.00
61573;BME280;47465;43.094;12.434;2023-05-11T05:03:04;98117.16;;;12.46;100.00
61573;BME280;47465;43.094;12.434;2023-05-11T05:05:30;98096.66;;;12.47;100.00
61573;BME280;47465;43.094;12.434;2023-05-11T05:07:55;98087.03;;;12.63;100.00
61573;BME280;47465;43.094;12.434;2023-05-11T05:10:23;98086.19;;;12.82;100.00
61573;BME280;47465;43.094;12.434;2023-05-11T05:12:49;98105.28;;;13.10;100.00
61573;BME280;47465;43.094;12.434;2023-05-11T05:15:14;98080.09;;;13.16;100.00
61573;BME280;47465;43.094;12.434;2023-05-11T05:17:40;98118.56;;;13.67;100.00
61573;BME280;47465;43.094;12.434;2023-05-11T05:20:07;98089.16;;;14.20;100.00
61573;BME280;47465;43.094;12.434;2023-05-11T05:22:33;98089.78;;;14.91;100.00
61573;BME280;47465;43.094;12.434;2023-05-11T05:24:59;98099.00;;;15.49;100.00
61573;BME280;47465;43.094;12.434;2023-05-11T05:27:27;98089.50;;;15.59;100.00
61573;BME280;47465;43.094;12.434;2023-05-11T05:29:52;98090.03;;;15.96;100.00
61573;BME280;47465;43.094;12.434;2023-05-11T05:32:19;98090.19;;;16.38;100.00
61573;BME280;47465;43.094;12.434;2023-05-11T05:34:45;98105.06;;;16.87;100.00
61573;BME280;47465;43.094;12.434;2023-05-11T05:37:14;98082.91;;;16.97;99.99
61573;BME280;47465;43.094;12.434;2023-05-11T05:39:43;98119.34;;;16.58;100.00
61573;BME280;47465;43.094;12.434;2023-05-11T05:42:10;98095.75;;;15.90;98.87
61573;BME280;47465;43.094;12.434;2023-05-11T05:44:37;98095.13;;;15.55;100.00
61573;BME280;47465;43.094;12.434;2023-05-11T05:47:04;98096.09;;;15.38;100.00
61573;BME280;47465;43.094;12.434;2023-05-11T05:49:32;98083.75;;;15.35;100.00
61573;BME280;47465;43.094;12.434;2023-05-11T05:52:04;98108.19;;;15.29;100.00
61573;BME280;47465;43.094;12.434;2023-05-11T05:54:30;98107.25;;;14.98;100.00
61573;BME280;47465;43.094;12.434;2023-05-11T05:56:55;98123.78;;;14.89;100.00
61573;BME280;47465;43.094;12.434;2023-05-11T05:59:21;98111.09;;;14.77;100.00
61573;BME280;47465;43.094;12.434;2023-05-11T06:01:59;98107.34;;;14.64;100.00
61573;BME280;47465;43.094;12.434;2023-05-11T06:04:25;98114.13;;;14.53;100.00
61573;BME280;47465;43.094;12.434;2023-05-11T06:06:51;98123.56;;;14.61;100.00
61573;BME280;47465;43.094;12.434;2023-05-11T06:09:17;98120.59;;;14.49;100.00
61573;BME280;47465;43.094;12.434;2023-05-11T06:11:43;98140.22;;;14.48;100.00
61573;BME280;47465;43.094;12.434;2023-05-11T06:14:09;98113.06;;;14.40;100.00
61573;BME280;47465;43.094;12.434;2023-05-11T06:16:35;98098.72;;;14.41;100.00
61573;BME280;47465;43.094;12.434;2023-05-11T06:19:02;98107.44;;;14.62;100.00
61573;BME280;47465;43.094;12.434;2023-05-11T06:21:28;98143.06;;;14.96;100.00
61573;BME280;47465;43.094;12.434;2023-05-11T06:23:54;98110.41;;;14.89;100.00
61573;BME280;47465;43.094;12.434;2023-05-11T06:26:19;98111.22;;;15.07;100.00
61573;BME280;47465;43.094;12.434;2023-05-11T06:28:49;98108.88;;;15.17;100.00
61573;BME280;47465;43.094;12.434;2023-05-11T06:31:15;98121.47;;;15.31;100.00
61573;BME280;47465;43.094;12.434;2023-05-11T06:33:41;98130.03;;;15.37;100.00
61573;BME280;47465;43.094;12.434;2023-05-11T06:36:08;98119.56;;;15.33;100.00
61573;BME280;47465;43.094;12.434;2023-05-11T06:38:34;98129.09;;;15.38;100.00
61573;BME280;47465;43.094;12.434;2023-05-11T06:41:00;98135.56;;;15.50;100.00
61573;BME280;47465;43.094;12.434;2023-05-11T06:43:26;98122.00;;;15.53;100.00
61573;BME280;47465;43.094;12.434;2023-05-11T06:45:52;98122.94;;;15.68;100.00
61573;BME280;47465;43.094;12.434;2023-05-11T06:48:19;98121.09;;;15.85;100.00
61573;BME280;47465;43.094;12.434;2023-05-11T06:50:48;98127.28;;;16.01;100.00
61573;BME280;47465;43.094;12.434;2023-05-11T06:53:19;98126.69;;;15.96;100.00
61573;BME280;47465;43.094;12.434;2023-05-11T06:55:46;98118.13;;;16.05;100.00
61573;BME280;47465;43.094;12.434;2023-05-11T06:58:12;98146.63;;;15.92;98.73
61573;BME280;47465;43.094;12.434;2023-05-11T07:00:39;98124.97;;;15.95;99.26
61573;BME280;47465;43.094;12.434;2023-05-11T07:03:05;98160.03;;;15.92;100.00
61573;BME280;47465;43.094;12.434;2023-05-11T07:05:31;98126.09;;;15.91;98.37
61573;BME280;47465;43.094;12.434;2023-05-11T07:07:57;98125.19;;;15.76;99.59
61573;BME280;47465;43.094;12.434;2023-05-11T07:10:25;98166.31;;;15.91;97.59
61573;BME280;47465;43.094;12.434;2023-05-11T07:12:50;98139.06;;;15.98;99.94
61573;BME280;47465;43.094;12.434;2023-05-11T07:15:16;98158.06;;;16.40;98.97
61573;BME280;47465;43.094;12.434;2023-05-11T07:17:42;98157.75;;;16.59;99.22
61573;BME280;47465;43.094;12.434;2023-05-11T07:20:12;98152.03;;;16.79;94.75
61573;BME280;47465;43.094;12.434;2023-05-11T07:22:37;98126.34;;;16.47;96.20
61573;BME280;47465;43.094;12.434;2023-05-11T07:25:04;98143.66;;;16.86;90.44
61573;BME280;47465;43.094;12.434;2023-05-11T07:27:31;98137.88;;;17.06;92.51
61573;BME280;47465;43.094;12.434;2023-05-11T07:29:59;98109.59;;;16.86;93.28
61573;BME280;47465;43.094;12.434;2023-05-11T07:32:25;98134.00;;;16.67;91.90
61573;BME280;47465;43.094;12.434;2023-05-11T07:34:50;98149.50;;;16.92;91.47
61573;BME280;47465;43.094;12.434;2023-05-11T07:37:16;98134.72;;;16.85;90.78
61573;BME280;47465;43.094;12.434;2023-05-11T07:39:42;98140.13;;;16.40;93.58
61573;BME280;47465;43.094;12.434;2023-05-11T07:42:08;98150.16;;;16.81;93.98
61573;BME280;47465;43.094;12.434;2023-05-11T07:44:35;98140.22;;;17.39;91.96
61573;BME280;47465;43.094;12.434;2023-05-11T07:47:01;98150.75;;;18.11;88.99
61573;BME280;47465;43.094;12.434;2023-05-11T07:49:27;98136.03;;;18.42;84.78
61573;BME280;47465;43.094;12.434;2023-05-11T07:51:53;98130.56;;;18.70;82.99
61573;BME280;47465;43.094;12.434;2023-05-11T07:54:19;98160.19;;;18.44;79.80
61573;BME280;47465;43.094;12.434;2023-05-11T07:56:45;98130.25;;;17.96;76.77
61573;BME280;47465;43.094;12.434;2023-05-11T07:59:11;98146.25;;;17.84;81.08
61573;BME280;47465;43.094;12.434;2023-05-11T08:01:38;98148.56;;;17.76;77.85
61573;BME280;47465;43.094;12.434;2023-05-11T08:04:04;98151.47;;;18.00;78.90
61573;BME280;47465;43.094;12.434;2023-05-11T08:06:30;98144.53;;;17.83;78.56
61573;BME280;47465;43.094;12.434;2023-05-11T08:08:57;98142.81;;;17.68;77.37
61573;BME280;47465;43.094;12.434;2023-05-11T08:11:23;98124.41;;;17.62;77.32
61573;BME280;47465;43.094;12.434;2023-05-11T08:13:49;98148.53;;;17.91;79.44
61573;BME280;47465;43.094;12.434;2023-05-11T08:16:14;98150.47;;;18.29;79.72
61573;BME280;47465;43.094;12.434;2023-05-11T08:18:42;98116.03;;;18.72;80.57
61573;BME280;47465;43.094;12.434;2023-05-11T08:21:07;98122.69;;;19.05;78.51
61573;BME280;47465;43.094;12.434;2023-05-11T08:23:33;98144.41;;;19.27;75.31
61573;BME280;47465;43.094;12.434;2023-05-11T08:25:59;98125.41;;;19.42;71.83
61573;BME280;47465;43.094;12.434;2023-05-11T08:28:25;98134.28;;;19.31;72.76
61573;BME280;47465;43.094;12.434;2023-05-11T08:30:54;98138.84;;;18.41;76.37
61573;BME280;47465;43.094;12.434;2023-05-11T08:33:20;98130.09;;;17.84;79.94
61573;BME280;47465;43.094;12.434;2023-05-11T08:35:48;98123.84;;;18.11;79.86
61573;BME280;47465;43.094;12.434;2023-05-11T08:38:13;98118.91;;;18.31;76.19
61573;BME280;47465;43.094;12.434;2023-05-11T08:40:40;98139.16;;;17.69;80.60
61573;BME280;47465;43.094;12.434;2023-05-11T08:43:12;98134.19;;;18.17;79.05
61573;BME280;47465;43.094;12.434;2023-05-11T08:45:40;98152.78;;;18.99;76.44
61573;BME280;47465;43.094;12.434;2023-05-11T08:48:09;98123.94;;;19.62;73.37
61573;BME280;47465;43.094;12.434;2023-05-11T08:50:35;98132.22;;;19.96;71.04
61573;BME280;47465;43.094;12.434;2023-05-11T08:53:03;98110.56;;;20.08;69.48
61573;BME280;47465;43.094;12.434;2023-05-11T08:55:30;98121.88;;;20.14;68.92
61573;BME280;47465;43.094;12.434;2023-05-11T08:57:59;98110.13;;;19.90;70.43
61573;BME280;47465;43.094;12.434;2023-05-11T09:00:28;98130.13;;;20.23;69.39
61573;BME280;47465;43.094;12.434;2023-05-11T09:02:56;98117.09;;;19.69;69.71
61573;BME280;47465;43.094;12.434;2023-05-11T09:05:24;98148.09;;;19.63;69.84
61573;BME280;47465;43.094;12.434;2023-05-11T09:07:52;98117.91;;;20.06;69.43
61573;BME280;47465;43.094;12.434;2023-05-11T09:10:21;98134.59;;;20.47;67.60
61573;BME280;47465;43.094;12.434;2023-05-11T09:12:48;98119.97;;;20.74;66.23
61573;BME280;47465;43.094;12.434;2023-05-11T09:15:14;98150.94;;;21.26;63.77
61573;BME280;47465;43.094;12.434;2023-05-11T09:17:39;98134.53;;;20.24;65.80
61573;BME280;47465;43.094;12.434;2023-05-11T09:20:06;98107.81;;;19.97;67.10
61573;BME280;47465;43.094;12.434;2023-05-11T09:22:39;98112.50;;;19.95;68.97
61573;BME280;47465;43.094;12.434;2023-05-11T09:25:05;98141.34;;;21.22;66.41
61573;BME280;47465;43.094;12.434;2023-05-11T09:27:33;98107.53;;;21.50;63.69
61573;BME280;47465;43.094;12.434;2023-05-11T09:30:10;98125.03;;;20.07;63.54
61573;BME280;47465;43.094;12.434;2023-05-11T09:32:45;98107.41;;;18.93;70.52
61573;BME280;47465;43.094;12.434;2023-05-11T09:35:20;98145.41;;;19.26;72.00
61573;BME280;47465;43.094;12.434;2023-05-11T09:37:56;98105.66;;;19.17;70.11
61573;BME280;47465;43.094;12.434;2023-05-11T09:40:22;98104.06;;;19.39;68.07
61573;BME280;47465;43.094;12.434;2023-05-11T09:42:49;98106.22;;;19.34;67.09
61573;BME280;47465;43.094;12.434;2023-05-11T09:45:33;98112.38;;;19.60;66.91
61573;BME280;47465;43.094;12.434;2023-05-11T09:48:00;98122.75;;;19.90;67.83
61573;BME280;47465;43.094;12.434;2023-05-11T09:50:31;98112.63;;;20.05;62.19
61573;BME280;47465;43.094;12.434;2023-05-11T09:52:58;98107.16;;;20.64;67.06
61573;BME280;47465;43.094;12.434;2023-05-11T09:55:24;98131.97;;;20.58;65.32
61573;BME280;47465;43.094;12.434;2023-05-11T09:57:54;98120.94;;;21.06;63.59
61573;BME280;47465;43.094;12.434;2023-05-11T10:00:20;98126.09;;;21.09;64.04
61573;BME280;47465;43.094;12.434;2023-05-11T10:02:58;98097.97;;;20.78;63.08
61573;BME280;47465;43.094;12.434;2023-05-11T10:05:25;98113.81;;;20.71;62.57
61573;BME280;47465;43.094;12.434;2023-05-11T10:07:56;98098.81;;;21.01;63.48
61573;BME280;47465;43.094;12.434;2023-05-11T10:10:23;98074.41;;;21.69;58.70
61573;BME280;47465;43.094;12.434;2023-05-11T10:12:51;98091.06;;;22.39;58.75
61573;BME280;47465;43.094;12.434;2023-05-11T10:15:18;98088.47;;;22.37;59.40
61573;BME280;47465;43.094;12.434;2023-05-11T10:17:46;98110.16;;;22.58;59.17
61573;BME280;47465;43.094;12.434;2023-05-11T10:20:13;98082.16;;;22.79;57.75
61573;BME280;47465;43.094;12.434;2023-05-11T10:22:39;98116.81;;;22.75;58.23
61573;BME280;47465;43.094;12.434;2023-05-11T10:25:07;98089.66;;;22.65;58.38
61573;BME280;47465;43.094;12.434;2023-05-11T10:27:35;98074.22;;;22.87;57.91
61573;BME280;47465;43.094;12.434;2023-05-11T10:30:02;98090.28;;;22.79;59.27
61573;BME280;47465;43.094;12.434;2023-05-11T10:32:30;98102.63;;;22.41;58.25
61573;BME280;47465;43.094;12.434;2023-05-11T10:34:58;98060.97;;;20.90;59.40
61573;BME280;47465;43.094;12.434;2023-05-11T10:37:25;98071.13;;;20.30;62.01
61573;BME280;47465;43.094;12.434;2023-05-11T10:39:52;98084.31;;;20.10;59.17
61573;BME280;47465;43.094;12.434;2023-05-11T10:45:16;98062.88;;;20.20;61.35
61573;BME280;47465;43.094;12.434;2023-05-11T10:48:09;98055.22;;;21.06;61.27
61573;BME280;47465;43.094;12.434;2023-05-11T10:50:56;98076.88;;;21.61;61.14
61573;BME280;47465;43.094;12.434;2023-05-11T10:53:45;98059.63;;;21.73;58.59
61573;BME280;47465;43.094;12.434;2023-05-11T10:56:33;98033.41;;;21.94;55.73
61573;BME280;47465;43.094;12.434;2023-05-11T10:59:16;98045.31;;;21.50;56.22
61573;BME280;47465;43.094;12.434;2023-05-11T11:01:49;98060.81;;;20.35;59.88
61573;BME280;47465;43.094;12.434;2023-05-11T11:04:18;98066.72;;;19.45;63.14
61573;BME280;47465;43.094;12.434;2023-05-11T11:06:45;98058.75;;;19.68;64.14
61573;BME280;47465;43.094;12.434;2023-05-11T11:09:12;98050.22;;;19.74;67.01
61573;BME280;47465;43.094;12.434;2023-05-11T11:11:41;98074.16;;;19.79;65.38
61573;BME280;47465;43.094;12.434;2023-05-11T11:14:10;98032.56;;;19.57;65.85
61573;BME280;47465;43.094;12.434;2023-05-11T11:16:37;98057.81;;;19.32;66.50
61573;BME280;47465;43.094;12.434;2023-05-11T11:19:35;98061.84;;;19.50;67.63
61573;BME280;47465;43.094;12.434;2023-05-11T11:22:01;98055.47;;;19.52;67.47
61573;BME280;47465;43.094;12.434;2023-05-11T11:24:52;98015.38;;;19.23;69.37
61573;BME280;47465;43.094;12.434;2023-05-11T11:27:17;98025.75;;;19.16;69.37
61573;BME280;47465;43.094;12.434;2023-05-11T11:30:16;98036.06;;;18.98;71.58
61573;BME280;47465;43.094;12.434;2023-05-11T11:32:43;98045.59;;;18.65;73.42
61573;BME280;47465;43.094;12.434;2023-05-11T11:38:13;98050.22;;;18.38;77.24
61573;BME280;47465;43.094;12.434;2023-05-11T11:40:40;98038.50;;;18.13;78.17
61573;BME280;47465;43.094;12.434;2023-05-11T11:43:10;98064.22;;;18.04;80.06
61573;BME280;47465;43.094;12.434;2023-05-11T11:45:37;98087.31;;;17.40;90.07
61573;BME280;47465;43.094;12.434;2023-05-11T11:48:14;98074.09;;;16.95;95.00
61573;BME280;47465;43.094;12.434;2023-05-11T11:50:45;98060.19;;;16.74;100.00
61573;BME280;47465;43.094;12.434;2023-05-11T11:56:43;98069.00;;;16.62;100.00
61573;BME280;47465;43.094;12.434;2023-05-11T11:59:13;98057.78;;;16.41;100.00
61573;BME280;47465;43.094;12.434;2023-05-11T12:01:41;98086.94;;;16.61;100.00
61573;BME280;47465;43.094;12.434;2023-05-11T12:07:19;98083.19;;;16.64;100.00
61573;BME280;47465;43.094;12.434;2023-05-11T12:09:47;98105.94;;;16.73;100.00
61573;BME280;47465;43.094;12.434;2023-05-11T12:12:16;98086.75;;;16.64;100.00
61573;BME280;47465;43.094;12.434;2023-05-11T12:14:43;98100.84;;;16.68;100.00
61573;BME280;47465;43.094;12.434;2023-05-11T12:17:22;98100.63;;;16.71;100.00
61573;BME280;47465;43.094;12.434;2023-05-11T12:19:50;98102.84;;;16.79;100.00
61573;BME280;47465;43.094;12.434;2023-05-11T12:22:21;98094.91;;;16.49;100.00
61573;BME280;47465;43.094;12.434;2023-05-11T12:24:48;98125.47;;;16.46;100.00
61573;BME280;47465;43.094;12.434;2023-05-11T12:27:15;98131.38;;;16.37;100.00
61573;BME280;47465;43.094;12.434;2023-05-11T12:29:41;98100.91;;;16.23;100.00
61573;BME280;47465;43.094;12.434;2023-05-11T12:32:10;98114.44;;;16.36;100.00
61573;BME280;47465;43.094;12.434;2023-05-11T12:34:37;98090.31;;;16.06;100.00
61573;BME280;47465;43.094;12.434;2023-05-11T12:37:04;98087.47;;;16.09;100.00
61573;BME280;47465;43.094;12.434;2023-05-11T12:39:30;98087.34;;;15.96;100.00
61573;BME280;47465;43.094;12.434;2023-05-11T12:41:58;98112.34;;;15.97;100.00
61573;BME280;47465;43.094;12.434;2023-05-11T12:44:25;98113.38;;;15.94;100.00
61573;BME280;47465;43.094;12.434;2023-05-11T12:46:51;98104.84;;;15.88;100.00
61573;BME280;47465;43.094;12.434;2023-05-11T12:49:18;98111.63;;;15.79;100.00
61573;BME280;47465;43.094;12.434;2023-05-11T12:51:46;98130.72;;;15.73;100.00
61573;BME280;47465;43.094;12.434;2023-05-11T12:54:12;98115.16;;;15.64;100.00
61573;BME280;47465;43.094;12.434;2023-05-11T12:56:48;98136.06;;;15.89;100.00
61573;BME280;47465;43.094;12.434;2023-05-11T12:59:30;98115.88;;;15.97;100.00
61573;BME280;47465;43.094;12.434;2023-05-11T13:02:23;98140.31;;;16.37;100.00